Whittington, United Kingdom
Current Conditions -  °F | °C
As of 10:50 AM on Thursday 27 Nov 2014 (Local Time) from EGBB Reporting Station
Haze Haze  
Wind Chill: 45°   Ceiling: 500
Heat Index: 45°   Visibility: 2.8mi
Dew Point: 45°   Wind: 3mph
Humidity: 100%   Direction: 170°S
Pressure: 29.59"   Gusts: NA
Location:  52.68°N, 1.77°W
Report Text: EGBB 271050Z 17003KT 4500 BR BKN005 OVC010 07/07 Q1002
Loading
Personal Weather Stations






























Interactive Weather Map New forecast layout! Learn more

10-Day Weather Forecast

Advertisements
Track Severe Weather on mobile